Time;durP1;ratioP1;P1;durP2;ratioP2;P2;SDS_P1;SDS_P2;PMS_P1;PMS_P2;Temp;Humidity;BMP_temperature;BMP_pressure;BME280_temperature;BME280_humidity;BME280_pressure;Samples;Min_cycle;Max_cycle;Signal;HPM_P1;HPM_P2
2024/02/20 00:03:04;;;;;;;4.75;2.53;;;;;;;;;;4972991;28;20198;-93
2024/02/20 00:06:09;;;;;;;7.85;2.88;;;;;;;;;;4968765;28;20175;-93
2024/02/20 00:09:14;;;;;;;7.00;2.55;;;;;;;;;;4966908;29;20193;-92
2024/02/20 00:12:21;;;;;;;5.35;2.65;;;;;;;;;;4967885;28;20194;-92
2024/02/20 00:15:27;;;;;;;5.70;2.75;;;;;;;;;;4967572;28;20204;-92
2024/02/20 00:18:32;;;;;;;6.80;3.13;;;;;;;;;;4968278;28;20198;-90
2024/02/20 00:21:40;;;;;;;7.57;3.28;;;;;;;;;;4973946;28;20269;-92
2024/02/20 00:24:48;;;;;;;7.63;2.78;;;;;;;;;;4985712;28;20210;-92
2024/02/20 00:27:55;;;;;;;7.35;2.78;;;;;;;;;;4986615;28;20225;-91
2024/02/20 00:31:00;;;;;;;10.65;3.22;;;;;;;;;;4985926;28;20208;-91
2024/02/20 00:34:05;;;;;;;9.55;2.63;;;;;;;;;;4986414;28;20599;-92
2024/02/20 00:37:10;;;;;;;7.18;2.63;;;;;;;;;;4979482;28;20211;-92
2024/02/20 00:40:16;;;;;;;7.30;2.65;;;;;;;;;;4962281;29;20222;-92
2024/02/20 00:43:22;;;;;;;7.72;2.40;;;;;;;;;;4965864;28;20246;-92
2024/02/20 00:46:28;;;;;;;12.65;3.15;;;;;;;;;;4965893;28;20409;-91
2024/02/20 00:49:33;;;;;;;8.38;2.72;;;;;;;;;;4964061;28;20306;-92
2024/02/20 00:52:38;;;;;;;9.98;3.40;;;;;;;;;;4985015;28;20273;-92
2024/02/20 00:55:45;;;;;;;10.35;4.05;;;;;;;;;;4985462;28;20206;-90
2024/02/20 00:58:51;;;;;;;15.13;4.30;;;;;;;;;;4966984;28;20218;-92
2024/02/20 01:01:56;;;;;;;13.27;4.32;;;;;;;;;;4988943;28;20272;-92
2024/02/20 01:05:02;;;;;;;10.18;3.30;;;;;;;;;;4967141;28;20250;-91
2024/02/20 01:08:08;;;;;;;15.65;3.75;;;;;;;;;;4954718;28;20748;-92
2024/02/20 01:11:13;;;;;;;11.77;3.50;;;;;;;;;;4967095;28;20250;-93
2024/02/20 01:14:20;;;;;;;15.73;5.47;;;;;;;;;;4984422;28;20267;-92
2024/02/20 01:17:24;;;;;;;18.73;5.97;;;;;;;;;;4977063;28;20210;-90
2024/02/20 01:20:30;;;;;;;10.02;4.03;;;;;;;;;;4965555;28;20186;-91
2024/02/20 01:23:35;;;;;;;11.38;3.10;;;;;;;;;;4966568;28;20274;-92
2024/02/20 01:26:42;;;;;;;8.68;3.00;;;;;;;;;;4985405;28;20213;-91
2024/02/20 01:29:49;;;;;;;7.07;3.25;;;;;;;;;;4983392;28;20688;-91
2024/02/20 01:32:57;;;;;;;7.25;3.10;;;;;;;;;;4981283;28;20205;-91
2024/02/20 01:36:02;;;;;;;7.72;3.47;;;;;;;;;;4984927;28;20245;-90
2024/02/20 01:39:07;;;;;;;10.68;3.15;;;;;;;;;;4969005;28;20209;-92
2024/02/20 01:42:12;;;;;;;7.10;3.63;;;;;;;;;;4965562;28;20581;-91
2024/02/20 01:45:19;;;;;;;10.27;3.47;;;;;;;;;;4969013;28;20666;-89
2024/02/20 01:48:24;;;;;;;8.68;3.33;;;;;;;;;;4964388;28;20210;-92
2024/02/20 01:51:30;;;;;;;6.47;3.00;;;;;;;;;;4965340;28;20685;-92
2024/02/20 01:54:35;;;;;;;9.70;3.20;;;;;;;;;;4982174;28;20818;-89
2024/02/20 01:57:41;;;;;;;10.10;3.47;;;;;;;;;;4985543;28;20252;-91
2024/02/20 02:00:48;;;;;;;8.13;3.00;;;;;;;;;;4983939;28;20339;-91
2024/02/20 02:03:53;;;;;;;5.63;2.80;;;;;;;;;;4985008;28;20181;-91
2024/02/20 02:06:58;;;;;;;7.47;3.22;;;;;;;;;;4976563;28;20219;-91
2024/02/20 02:10:04;;;;;;;8.25;3.13;;;;;;;;;;4971785;28;20355;-92
2024/02/20 02:13:09;;;;;;;9.75;3.83;;;;;;;;;;4966720;28;20265;-91
2024/02/20 02:16:16;;;;;;;9.68;3.15;;;;;;;;;;4965695;28;20187;-91
2024/02/20 02:19:22;;;;;;;11.50;3.63;;;;;;;;;;4966718;28;20287;-90
2024/02/20 02:22:26;;;;;;;13.75;3.60;;;;;;;;;;4965966;28;20206;-91
2024/02/20 02:25:31;;;;;;;11.10;3.35;;;;;;;;;;4966704;28;20237;-91
2024/02/20 02:28:38;;;;;;;11.35;4.05;;;;;;;;;;4975553;28;20221;-92
2024/02/20 02:31:43;;;;;;;8.45;3.38;;;;;;;;;;4987754;28;20192;-91
2024/02/20 02:34:48;;;;;;;8.73;3.85;;;;;;;;;;4986796;28;20596;-91
2024/02/20 02:37:54;;;;;;;8.10;3.85;;;;;;;;;;4986799;28;20178;-92
2024/02/20 02:40:59;;;;;;;8.02;3.83;;;;;;;;;;4987683;28;20202;-91
2024/02/20 02:44:07;;;;;;;12.15;3.97;;;;;;;;;;4981783;28;20345;-93
2024/02/20 02:47:11;;;;;;;9.45;3.78;;;;;;;;;;4984567;28;20217;-91
2024/02/20 02:50:17;;;;;;;8.90;3.65;;;;;;;;;;4985004;28;20248;-92
2024/02/20 02:53:22;;;;;;;11.27;4.05;;;;;;;;;;4986997;28;20201;-92
2024/02/20 02:56:28;;;;;;;14.57;4.18;;;;;;;;;;4985865;28;20230;-91
2024/02/20 02:59:35;;;;;;;11.52;4.60;;;;;;;;;;4968244;28;20193;-91
2024/02/20 03:02:41;;;;;;;11.85;4.63;;;;;;;;;;4966573;28;20194;-91
2024/02/20 03:05:46;;;;;;;12.18;3.80;;;;;;;;;;4978980;28;20662;-90
2024/02/20 03:08:51;;;;;;;10.20;4.28;;;;;;;;;;4987275;28;20216;-93
2024/02/20 03:11:58;;;;;;;10.23;4.07;;;;;;;;;;4987087;28;20194;-92
2024/02/20 03:15:04;;;;;;;10.88;4.50;;;;;;;;;;4984719;28;20185;-92
2024/02/20 03:18:10;;;;;;;14.20;4.70;;;;;;;;;;4985753;28;20271;-91
2024/02/20 03:21:20;;;;;;;9.88;4.75;;;;;;;;;;4966294;28;20233;-91
2024/02/20 03:24:25;;;;;;;12.10;4.82;;;;;;;;;;4965777;28;20201;-92
2024/02/20 03:27:31;;;;;;;11.57;4.75;;;;;;;;;;4966169;28;20226;-96
2024/02/20 03:30:38;;;;;;;12.57;5.00;;;;;;;;;;4965100;28;20207;-91
2024/02/20 03:33:45;;;;;;;13.57;4.88;;;;;;;;;;4966982;28;20190;-93
2024/02/20 03:36:51;;;;;;;12.15;4.95;;;;;;;;;;4964144;28;20186;-92
2024/02/20 03:39:56;;;;;;;12.50;4.90;;;;;;;;;;4966193;28;20206;-92
2024/02/20 03:43:02;;;;;;;13.23;5.22;;;;;;;;;;4965941;28;20297;-92
2024/02/20 03:46:09;;;;;;;13.30;5.15;;;;;;;;;;4965937;28;20193;-92
2024/02/20 03:49:15;;;;;;;14.95;5.38;;;;;;;;;;4966121;28;20229;-94
2024/02/20 03:52:20;;;;;;;13.35;5.47;;;;;;;;;;4965181;28;20191;-92
2024/02/20 03:55:25;;;;;;;14.95;5.60;;;;;;;;;;4965468;28;20272;-92
2024/02/20 03:58:31;;;;;;;11.65;5.68;;;;;;;;;;4966508;28;20307;-92
2024/02/20 04:01:37;;;;;;;13.68;5.28;;;;;;;;;;4965875;28;20194;-92
2024/02/20 04:04:43;;;;;;;13.48;5.75;;;;;;;;;;4945379;29;20234;-92
2024/02/20 04:07:49;;;;;;;8.77;5.10;;;;;;;;;;4945805;28;20223;-92
2024/02/20 04:10:55;;;;;;;16.85;5.97;;;;;;;;;;4969341;28;20196;-91
2024/02/20 04:14:00;;;;;;;10.25;5.57;;;;;;;;;;4974872;28;20183;-92
2024/02/20 04:17:07;;;;;;;12.68;5.90;;;;;;;;;;4970748;28;20190;-93
2024/02/20 04:20:13;;;;;;;17.85;6.40;;;;;;;;;;4969156;28;20262;-92
2024/02/20 04:23:20;;;;;;;13.10;5.90;;;;;;;;;;4951135;28;20191;-93
2024/02/20 04:26:25;;;;;;;13.80;6.07;;;;;;;;;;4949661;28;20187;-93
2024/02/20 04:29:31;;;;;;;11.02;5.47;;;;;;;;;;4950449;28;20216;-91
2024/02/20 04:32:38;;;;;;;14.25;6.15;;;;;;;;;;4949316;28;20346;-92
2024/02/20 04:35:44;;;;;;;15.73;6.30;;;;;;;;;;4950093;28;20174;-92
2024/02/20 04:38:56;;;;;;;17.27;6.38;;;;;;;;;;4950437;29;20199;-92
2024/02/20 04:42:01;;;;;;;14.10;5.72;;;;;;;;;;4981615;28;20194;-90
2024/02/20 04:45:07;;;;;;;17.27;6.10;;;;;;;;;;4970083;28;20226;-93
2024/02/20 04:48:15;;;;;;;17.23;6.90;;;;;;;;;;4983102;28;20221;-92
2024/02/20 04:51:20;;;;;;;13.35;6.05;;;;;;;;;;4966348;28;20331;-92
2024/02/20 04:54:25;;;;;;;15.50;5.80;;;;;;;;;;4977985;28;20212;-91
2024/02/20 04:57:31;;;;;;;19.15;6.45;;;;;;;;;;4973127;28;20186;-91
2024/02/20 05:00:36;;;;;;;13.60;5.90;;;;;;;;;;4954622;28;20230;-91
2024/02/20 05:03:43;;;;;;;15.50;6.05;;;;;;;;;;4967010;28;20245;-92
2024/02/20 05:06:50;;;;;;;16.10;5.80;;;;;;;;;;4962732;28;20258;-92
2024/02/20 05:09:55;;;;;;;11.60;6.28;;;;;;;;;;4952343;28;20207;-92
2024/02/20 05:13:00;;;;;;;17.05;6.70;;;;;;;;;;4980191;28;20198;-91
2024/02/20 05:16:06;;;;;;;17.20;6.75;;;;;;;;;;4976181;28;20198;-90
2024/02/20 05:19:15;;;;;;;17.05;6.45;;;;;;;;;;4958138;28;20203;-92
2024/02/20 05:22:20;;;;;;;13.57;6.80;;;;;;;;;;4969627;28;20262;-92
2024/02/20 05:25:25;;;;;;;15.25;6.68;;;;;;;;;;4981023;28;20570;-91
2024/02/20 05:28:30;;;;;;;15.23;6.22;;;;;;;;;;4973997;28;20271;-92
2024/02/20 05:31:35;;;;;;;15.23;6.40;;;;;;;;;;4974824;28;20183;-93
2024/02/20 05:34:42;;;;;;;20.15;7.30;;;;;;;;;;4983487;28;20201;-91
2024/02/20 05:37:50;;;;;;;19.80;7.20;;;;;;;;;;4988037;28;20234;-93
2024/02/20 05:40:55;;;;;;;16.17;7.10;;;;;;;;;;4950081;29;20227;-92
2024/02/20 05:44:01;;;;;;;17.27;6.45;;;;;;;;;;4978444;28;20578;-92
2024/02/20 05:47:06;;;;;;;14.02;6.47;;;;;;;;;;4987982;28;20189;-93
2024/02/20 05:50:13;;;;;;;14.48;6.40;;;;;;;;;;4972368;29;20195;-92
2024/02/20 05:53:18;;;;;;;19.45;7.10;;;;;;;;;;4968842;28;20210;-93
2024/02/20 05:56:24;;;;;;;17.17;6.80;;;;;;;;;;4974487;28;20217;-93
2024/02/20 05:59:30;;;;;;;16.55;6.88;;;;;;;;;;4971663;28;20198;-92
2024/02/20 06:02:35;;;;;;;15.77;6.50;;;;;;;;;;4966457;28;20346;-91
2024/02/20 06:05:44;;;;;;;20.10;9.18;;;;;;;;;;4968584;28;20198;-91
2024/02/20 06:08:50;;;;;;;18.83;6.88;;;;;;;;;;4981791;28;20238;-93
2024/02/20 06:11:56;;;;;;;18.15;6.80;;;;;;;;;;4983670;28;20257;-92
2024/02/20 06:15:01;;;;;;;11.88;5.97;;;;;;;;;;4947975;29;20219;-92
2024/02/20 06:18:07;;;;;;;17.58;6.80;;;;;;;;;;4950134;28;20199;-92
2024/02/20 06:21:14;;;;;;;17.77;6.70;;;;;;;;;;4950219;28;20191;-91
2024/02/20 06:24:19;;;;;;;17.40;7.05;;;;;;;;;;4949260;28;20234;-94
2024/02/20 06:27:25;;;;;;;16.02;6.80;;;;;;;;;;4963652;28;20202;-93
2024/02/20 06:30:31;;;;;;;18.65;6.80;;;;;;;;;;4948033;29;20184;-93
2024/02/20 06:33:37;;;;;;;19.05;7.28;;;;;;;;;;4979737;28;20229;-93
2024/02/20 06:36:46;;;;;;;21.10;7.63;;;;;;;;;;4989499;28;20210;-93
2024/02/20 06:39:51;;;;;;;14.02;6.35;;;;;;;;;;4949210;28;20316;-93
2024/02/20 06:42:57;;;;;;;13.70;6.40;;;;;;;;;;4949738;28;20399;-91
2024/02/20 06:46:08;;;;;;;15.02;6.60;;;;;;;;;;4951506;29;20197;-91
2024/02/20 06:49:13;;;;;;;13.43;6.20;;;;;;;;;;4952821;28;20227;-91
2024/02/20 06:52:20;;;;;;;17.80;7.47;;;;;;;;;;4949232;28;20191;-93
2024/02/20 06:55:26;;;;;;;16.83;6.68;;;;;;;;;;4949169;29;20195;-92
2024/02/20 06:58:31;;;;;;;12.25;5.80;;;;;;;;;;4960868;28;20198;-92
2024/02/20 07:01:37;;;;;;;14.20;6.43;;;;;;;;;;4968613;28;20190;-91
2024/02/20 07:04:42;;;;;;;16.20;7.20;;;;;;;;;;4975156;28;20186;-92
2024/02/20 07:07:51;;;;;;;11.93;5.95;;;;;;;;;;4987537;28;20210;-94
2024/02/20 07:10:58;;;;;;;15.77;6.60;;;;;;;;;;4988419;28;20202;-92
2024/02/20 07:14:04;;;;;;;14.70;6.30;;;;;;;;;;4964072;29;20206;-92
2024/02/20 07:17:10;;;;;;;14.52;6.10;;;;;;;;;;4966086;28;20210;-89
2024/02/20 07:20:15;;;;;;;13.90;6.70;;;;;;;;;;4958432;28;20223;-94
2024/02/20 07:23:31;;;;;;;13.98;6.75;;;;;;;;;;4962516;29;20222;-91
2024/02/20 07:26:36;;;;;;;13.43;6.07;;;;;;;;;;4964852;28;20273;-92
2024/02/20 07:29:42;;;;;;;15.27;6.22;;;;;;;;;;4969931;28;20251;-93
2024/02/20 07:32:47;;;;;;;20.27;6.90;;;;;;;;;;4971899;28;20207;-92
2024/02/20 07:35:53;;;;;;;13.15;6.75;;;;;;;;;;4963567;28;20198;-92
2024/02/20 07:39:00;;;;;;;11.57;6.32;;;;;;;;;;4952343;28;20270;-89
2024/02/20 07:42:07;;;;;;;17.77;6.68;;;;;;;;;;4965782;28;20199;-91
2024/02/20 07:45:19;;;;;;;21.08;10.35;;;;;;;;;;4957334;29;20207;-92
2024/02/20 07:48:24;;;;;;;11.70;6.00;;;;;;;;;;4963097;28;20706;-91
2024/02/20 07:51:31;;;;;;;15.90;6.25;;;;;;;;;;4960522;29;20199;-91
2024/02/20 07:54:38;;;;;;;15.52;7.70;;;;;;;;;;4960074;28;20203;-92
2024/02/20 07:57:44;;;;;;;12.18;6.47;;;;;;;;;;4967237;28;20198;-91
2024/02/20 08:00:50;;;;;;;13.35;6.03;;;;;;;;;;4954873;28;20207;-91
2024/02/20 08:03:58;;;;;;;15.15;6.40;;;;;;;;;;4953556;29;20203;-93
2024/02/20 08:07:04;;;;;;;16.63;6.55;;;;;;;;;;4969114;28;20226;-92
2024/02/20 08:10:13;;;;;;;14.65;6.25;;;;;;;;;;4982095;28;20221;-93
2024/02/20 08:16:44;;;;;;;11.93;6.53;;;;;;;;;;4967778;28;20214;-92
2024/02/20 08:19:50;;;;;;;13.45;6.10;;;;;;;;;;4960473;28;20223;-92
2024/02/20 08:22:59;;;;;;;12.95;6.47;;;;;;;;;;4964962;28;20215;-92
2024/02/20 08:26:07;;;;;;;20.75;10.10;;;;;;;;;;4977265;28;20182;-91
2024/02/20 08:29:18;;;;;;;20.08;6.63;;;;;;;;;;4977881;28;20234;-92
2024/02/20 08:32:24;;;;;;;14.63;5.95;;;;;;;;;;4955321;28;20232;-92
2024/02/20 08:38:50;;;;;;;12.85;5.75;;;;;;;;;;4982954;28;20256;-92
2024/02/20 08:45:23;;;;;;;18.65;6.18;;;;;;;;;;4968294;28;20620;-93
2024/02/20 08:48:31;;;;;;;11.55;5.30;;;;;;;;;;4968342;28;20190;-92
2024/02/20 08:51:36;;;;;;;14.13;4.80;;;;;;;;;;4971695;28;20283;-93
2024/02/20 08:54:43;;;;;;;14.38;5.85;;;;;;;;;;4957284;28;20206;-92
2024/02/20 08:57:51;;;;;;;17.42;7.53;;;;;;;;;;4973711;28;20198;-91
2024/02/20 09:01:10;;;;;;;14.20;6.63;;;;;;;;;;4971707;28;20280;-92
2024/02/20 09:04:18;;;;;;;12.48;5.30;;;;;;;;;;4973093;28;20237;-91
2024/02/20 09:07:23;;;;;;;11.60;5.95;;;;;;;;;;4966262;28;20199;-93
2024/02/20 09:10:29;;;;;;;8.77;4.30;;;;;;;;;;4958863;28;20210;-90
2024/02/20 09:13:37;;;;;;;11.15;5.25;;;;;;;;;;4964612;28;20304;-92
2024/02/20 09:16:43;;;;;;;11.55;4.53;;;;;;;;;;4971512;28;20234;-94
2024/02/20 09:19:50;;;;;;;11.88;5.80;;;;;;;;;;4959888;29;20284;-91
2024/02/20 09:22:56;;;;;;;13.68;5.60;;;;;;;;;;4968884;28;20274;-93
2024/02/20 09:26:04;;;;;;;10.85;4.13;;;;;;;;;;4959166;28;20273;-93
2024/02/20 09:29:27;;;;;;;10.27;4.63;;;;;;;;;;4953712;28;20355;-93
2024/02/20 09:32:33;;;;;;;10.95;4.80;;;;;;;;;;4982064;28;20217;-91
2024/02/20 09:35:48;;;;;;;10.95;4.72;;;;;;;;;;4955123;28;20203;-93
2024/02/20 09:38:58;;;;;;;7.57;3.67;;;;;;;;;;4966926;28;20199;-92
2024/02/20 09:42:08;;;;;;;7.90;3.67;;;;;;;;;;4966743;28;20323;-92
2024/02/20 09:45:25;;;;;;;8.68;3.53;;;;;;;;;;4972314;29;20549;-91
2024/02/20 09:48:31;;;;;;;8.82;3.50;;;;;;;;;;4965412;28;20179;-92
2024/02/20 09:51:38;;;;;;;7.90;3.72;;;;;;;;;;4964092;28;20250;-91
2024/02/20 09:54:44;;;;;;;7.95;3.05;;;;;;;;;;4972345;29;20210;-91
2024/02/20 09:57:50;;;;;;;17.58;5.28;;;;;;;;;;4955428;28;20222;-90
2024/02/20 10:00:59;;;;;;;9.90;4.28;;;;;;;;;;4968731;29;20198;-90
2024/02/20 10:04:15;;;;;;;9.98;4.20;;;;;;;;;;4960294;28;20219;-92
2024/02/20 10:07:21;;;;;;;12.18;4.20;;;;;;;;;;4952752;28;20254;-91
2024/02/20 10:10:27;;;;;;;6.47;2.97;;;;;;;;;;4954181;29;20235;-92
2024/02/20 10:17:11;;;;;;;6.43;2.33;;;;;;;;;;4967421;28;20283;-91
2024/02/20 10:20:17;;;;;;;5.93;2.40;;;;;;;;;;4966858;28;20230;-91
2024/02/20 10:23:23;;;;;;;5.63;2.30;;;;;;;;;;4966137;28;20281;-90
2024/02/20 10:26:31;;;;;;;5.18;2.33;;;;;;;;;;4965396;28;20191;-94
2024/02/20 10:29:38;;;;;;;4.47;2.00;;;;;;;;;;4965671;28;20218;-91
2024/02/20 10:36:21;;;;;;;4.05;2.05;;;;;;;;;;4950161;28;20321;-90
2024/02/20 10:39:26;;;;;;;4.65;2.40;;;;;;;;;;4952350;28;20222;-91
2024/02/20 10:42:35;;;;;;;6.03;2.30;;;;;;;;;;4962020;28;20721;-92
2024/02/20 10:45:42;;;;;;;6.72;2.17;;;;;;;;;;4961388;28;20179;-91
2024/02/20 10:48:48;;;;;;;2.63;1.70;;;;;;;;;;4954200;28;20207;-92
2024/02/20 10:51:56;;;;;;;2.72;1.60;;;;;;;;;;4974478;28;20195;-91
2024/02/20 10:55:04;;;;;;;3.92;1.65;;;;;;;;;;4953634;28;20194;-90
2024/02/20 10:58:16;;;;;;;5.35;1.70;;;;;;;;;;4958279;28;20202;-91
2024/02/20 11:01:23;;;;;;;7.43;3.15;;;;;;;;;;4969874;28;20190;-91
2024/02/20 11:04:29;;;;;;;7.75;2.67;;;;;;;;;;4963872;28;20198;-91
2024/02/20 11:07:50;;;;;;;4.72;1.98;;;;;;;;;;4980768;28;20201;-90
2024/02/20 11:11:09;;;;;;;4.18;1.65;;;;;;;;;;4970347;28;20226;-89
2024/02/20 11:14:25;;;;;;;7.25;1.50;;;;;;;;;;4963160;28;20199;-90
2024/02/20 11:17:35;;;;;;;2.95;1.58;;;;;;;;;;4955615;28;20207;-92
2024/02/20 11:20:40;;;;;;;3.58;1.30;;;;;;;;;;4970672;28;20195;-93
2024/02/20 11:23:46;;;;;;;3.90;1.48;;;;;;;;;;4958211;28;20834;-93
2024/02/20 11:27:03;;;;;;;4.38;1.38;;;;;;;;;;4958859;29;20208;-92
2024/02/20 11:30:11;;;;;;;3.53;1.35;;;;;;;;;;4979929;28;21011;-90
2024/02/20 11:33:19;;;;;;;2.92;1.30;;;;;;;;;;4972662;28;20210;-92
2024/02/20 11:36:25;;;;;;;3.75;1.90;;;;;;;;;;4955592;28;20228;-92
2024/02/20 11:39:33;;;;;;;2.92;0.93;;;;;;;;;;4970942;28;20209;-93
2024/02/20 11:42:42;;;;;;;1.20;0.98;;;;;;;;;;4962934;28;20378;-90
2024/02/20 11:45:48;;;;;;;2.45;1.10;;;;;;;;;;4959921;28;20215;-93
2024/02/20 11:48:54;;;;;;;15.75;4.40;;;;;;;;;;4977571;28;20198;-91
2024/02/20 11:52:04;;;;;;;64.57;6.78;;;;;;;;;;4960391;28;20223;-92
2024/02/20 11:55:11;;;;;;;8.00;3.10;;;;;;;;;;4970261;28;20247;-92
2024/02/20 11:58:20;;;;;;;9.80;2.70;;;;;;;;;;4969273;28;20209;-91
2024/02/20 12:01:27;;;;;;;9.45;2.03;;;;;;;;;;4967163;28;20256;-92
2024/02/20 12:04:33;;;;;;;5.70;2.33;;;;;;;;;;4965436;28;20222;-91
2024/02/20 12:07:40;;;;;;;10.45;3.85;;;;;;;;;;4963743;28;20203;-92
2024/02/20 12:10:47;;;;;;;9.00;2.58;;;;;;;;;;4962873;28;20250;-93
2024/02/20 12:13:59;;;;;;;5.97;2.28;;;;;;;;;;4969746;28;20243;-92
2024/02/20 12:17:06;;;;;;;4.00;1.80;;;;;;;;;;4963628;28;20182;-90
2024/02/20 12:20:12;;;;;;;3.45;2.00;;;;;;;;;;4962949;28;20564;-91
2024/02/20 12:23:19;;;;;;;10.57;2.22;;;;;;;;;;4962471;28;20222;-91
2024/02/20 12:26:26;;;;;;;8.02;2.55;;;;;;;;;;4966602;28;20206;-90
2024/02/20 12:29:34;;;;;;;7.18;2.90;;;;;;;;;;4962365;28;20277;-91
2024/02/20 12:32:42;;;;;;;6.85;2.25;;;;;;;;;;4963880;28;20275;-91
2024/02/20 12:35:48;;;;;;;4.20;1.70;;;;;;;;;;4970952;28;20247;-92
2024/02/20 12:38:56;;;;;;;11.70;3.47;;;;;;;;;;4966282;28;20197;-92
2024/02/20 12:42:03;;;;;;;13.65;3.90;;;;;;;;;;4974631;28;20231;-91
2024/02/20 12:45:28;;;;;;;5.70;1.80;;;;;;;;;;4972633;28;20205;-91
2024/02/20 12:48:38;;;;;;;8.27;2.45;;;;;;;;;;4973122;28;20188;-92
2024/02/20 12:51:44;;;;;;;22.75;3.22;;;;;;;;;;4963662;28;20222;-91
2024/02/20 12:54:50;;;;;;;7.75;2.00;;;;;;;;;;4970698;28;20199;-90
2024/02/20 12:57:56;;;;;;;6.15;1.63;;;;;;;;;;4960546;28;20198;-92
2024/02/20 13:01:03;;;;;;;6.47;1.90;;;;;;;;;;4969447;28;20250;-92
2024/02/20 13:04:19;;;;;;;3.00;1.10;;;;;;;;;;4965754;28;20198;-90
2024/02/20 13:07:25;;;;;;;10.25;1.58;;;;;;;;;;4956338;28;20203;-93
2024/02/20 13:10:31;;;;;;;2.53;1.15;;;;;;;;;;4960972;28;20301;-92
2024/02/20 13:13:37;;;;;;;3.15;1.40;;;;;;;;;;4961101;28;20234;-92
2024/02/20 13:16:47;;;;;;;4.57;1.40;;;;;;;;;;4972610;28;20191;-93
2024/02/20 13:19:55;;;;;;;9.63;1.58;;;;;;;;;;4968292;28;20193;-93
2024/02/20 13:23:00;;;;;;;62.33;4.68;;;;;;;;;;4952896;28;20263;-91
2024/02/20 13:26:06;;;;;;;3.83;1.00;;;;;;;;;;4956288;28;20214;-91
2024/02/20 13:29:12;;;;;;;6.93;1.80;;;;;;;;;;4971387;28;20190;-90
2024/02/20 13:32:18;;;;;;;5.00;1.75;;;;;;;;;;4970286;28;20210;-91
2024/02/20 13:35:40;;;;;;;5.85;2.00;;;;;;;;;;4954749;28;20188;-91
2024/02/20 13:38:55;;;;;;;5.57;1.45;;;;;;;;;;4968789;28;20207;-90
2024/02/20 13:42:03;;;;;;;9.82;1.45;;;;;;;;;;4963020;28;20219;-93
2024/02/20 13:45:11;;;;;;;4.32;1.40;;;;;;;;;;4960439;28;20249;-91
2024/02/20 13:48:18;;;;;;;8.57;2.20;;;;;;;;;;4965300;28;20193;-91
2024/02/20 13:51:23;;;;;;;5.82;1.58;;;;;;;;;;4969602;29;20226;-91
2024/02/20 13:54:30;;;;;;;5.57;1.92;;;;;;;;;;4963825;29;20308;-92
2024/02/20 13:57:36;;;;;;;6.05;1.33;;;;;;;;;;4966444;28;20222;-92
2024/02/20 14:00:44;;;;;;;3.78;1.33;;;;;;;;;;4968087;28;20206;-90
2024/02/20 14:03:51;;;;;;;5.38;1.20;;;;;;;;;;4961658;28;20207;-91
2024/02/20 14:13:56;;;;;;;5.40;1.63;;;;;;;;;;4970007;28;20283;-91
2024/02/20 14:17:03;;;;;;;8.30;1.10;;;;;;;;;;4967848;29;20210;-90
2024/02/20 14:20:13;;;;;;;4.43;1.20;;;;;;;;;;4962513;28;20266;-90
2024/02/20 14:23:19;;;;;;;7.38;1.08;;;;;;;;;;4972076;29;20195;-90
2024/02/20 14:26:26;;;;;;;8.68;1.20;;;;;;;;;;4964921;28;20218;-90
2024/02/20 14:29:35;;;;;;;3.75;1.13;;;;;;;;;;4956620;28;20203;-89
2024/02/20 14:32:45;;;;;;;4.78;1.27;;;;;;;;;;4968249;28;20274;-92
2024/02/20 14:35:52;;;;;;;4.35;1.00;;;;;;;;;;4963886;29;20202;-90
2024/02/20 14:39:04;;;;;;;6.88;1.35;;;;;;;;;;4969728;29;20208;-91
2024/02/20 14:42:10;;;;;;;6.07;1.50;;;;;;;;;;4972307;28;20202;-91
2024/02/20 14:45:22;;;;;;;6.57;1.30;;;;;;;;;;4960252;28;20199;-91
2024/02/20 14:48:31;;;;;;;7.00;1.98;;;;;;;;;;4968513;28;20211;-90
2024/02/20 14:51:37;;;;;;;4.72;1.70;;;;;;;;;;4958283;28;20254;-90
2024/02/20 14:54:45;;;;;;;4.90;1.70;;;;;;;;;;4967505;28;20198;-92
2024/02/20 14:57:50;;;;;;;6.18;1.98;;;;;;;;;;4961019;28;20206;-92
2024/02/20 15:00:58;;;;;;;8.82;2.38;;;;;;;;;;4965325;28;20198;-92
2024/02/20 15:04:03;;;;;;;8.25;2.03;;;;;;;;;;4952040;28;20202;-91
2024/02/20 15:07:12;;;;;;;6.40;1.65;;;;;;;;;;4971901;28;20265;-89
2024/02/20 15:10:19;;;;;;;9.38;2.28;;;;;;;;;;4968891;28;20210;-91
2024/02/20 15:13:25;;;;;;;7.07;1.88;;;;;;;;;;4966392;28;20206;-90
2024/02/20 15:16:33;;;;;;;7.13;1.80;;;;;;;;;;4952114;28;20210;-91
2024/02/20 15:19:48;;;;;;;9.23;2.30;;;;;;;;;;4956943;29;20330;-91
2024/02/20 15:22:53;;;;;;;8.90;2.20;;;;;;;;;;4958295;29;20194;-91
2024/02/20 15:26:02;;;;;;;5.32;2.15;;;;;;;;;;4966068;28;20213;-91
2024/02/20 15:29:08;;;;;;;12.20;2.30;;;;;;;;;;4952029;28;20215;-92
2024/02/20 15:32:15;;;;;;;9.68;2.50;;;;;;;;;;4961411;28;20222;-91
2024/02/20 15:35:23;;;;;;;8.20;3.10;;;;;;;;;;4965251;28;20197;-91
2024/02/20 15:38:28;;;;;;;8.25;2.45;;;;;;;;;;4964826;29;20270;-90
2024/02/20 15:41:36;;;;;;;8.25;2.30;;;;;;;;;;4960330;28;20186;-91
2024/02/20 15:44:41;;;;;;;7.60;2.72;;;;;;;;;;4966377;29;20234;-90
2024/02/20 15:47:51;;;;;;;11.85;2.97;;;;;;;;;;4967687;28;20214;-91
2024/02/20 15:50:58;;;;;;;11.90;3.75;;;;;;;;;;4962056;28;20259;-91
2024/02/20 15:54:03;;;;;;;11.05;3.17;;;;;;;;;;4966377;29;20299;-91
2024/02/20 15:57:10;;;;;;;24.67;3.78;;;;;;;;;;4957768;28;20186;-92
2024/02/20 16:00:18;;;;;;;11.07;2.65;;;;;;;;;;4968905;28;20239;-91
2024/02/20 16:03:25;;;;;;;12.32;2.97;;;;;;;;;;4968137;28;20203;-90
2024/02/20 16:06:33;;;;;;;12.55;2.92;;;;;;;;;;4959680;28;20240;-91
2024/02/20 16:09:38;;;;;;;13.30;3.40;;;;;;;;;;4970459;28;20665;-90
2024/02/20 16:12:44;;;;;;;14.48;3.80;;;;;;;;;;4968261;28;20237;-90
2024/02/20 16:15:51;;;;;;;12.68;3.03;;;;;;;;;;4960889;28;20206;-91
2024/02/20 16:18:59;;;;;;;15.32;3.00;;;;;;;;;;4961202;28;20198;-93
2024/02/20 16:22:05;;;;;;;9.00;2.85;;;;;;;;;;4961087;28;20195;-91
2024/02/20 16:25:11;;;;;;;10.15;2.75;;;;;;;;;;4966593;29;20276;-93
2024/02/20 16:28:19;;;;;;;15.75;2.80;;;;;;;;;;4971652;28;20270;-91
2024/02/20 16:31:24;;;;;;;9.77;2.90;;;;;;;;;;4962027;28;20355;-92
2024/02/20 16:34:31;;;;;;;9.82;2.88;;;;;;;;;;4967089;28;20273;-94
2024/02/20 16:37:37;;;;;;;14.02;3.10;;;;;;;;;;4962105;28;20214;-92
2024/02/20 16:40:46;;;;;;;12.02;3.60;;;;;;;;;;4953018;29;20210;-91
2024/02/20 16:43:52;;;;;;;8.95;2.85;;;;;;;;;;4959586;29;20210;-91
2024/02/20 16:46:57;;;;;;;13.48;3.33;;;;;;;;;;4971172;28;20515;-92
2024/02/20 16:50:05;;;;;;;14.23;4.10;;;;;;;;;;4957598;28;20318;-92
2024/02/20 16:53:10;;;;;;;18.15;3.63;;;;;;;;;;4956886;28;20322;-90
2024/02/20 16:56:16;;;;;;;13.13;3.35;;;;;;;;;;4960948;28;20199;-90
2024/02/20 16:59:22;;;;;;;14.75;4.03;;;;;;;;;;4962600;28;20201;-91
2024/02/20 17:02:31;;;;;;;13.23;4.22;;;;;;;;;;4960138;28;20199;-93
2024/02/20 17:05:39;;;;;;;16.17;4.82;;;;;;;;;;4964515;28;20285;-91
2024/02/20 17:08:44;;;;;;;21.33;4.88;;;;;;;;;;4959612;28;20206;-92
2024/02/20 17:11:51;;;;;;;15.68;3.75;;;;;;;;;;4959594;28;20230;-92
2024/02/20 17:14:58;;;;;;;14.07;3.50;;;;;;;;;;4954310;28;20187;-92
2024/02/20 17:18:04;;;;;;;13.77;3.75;;;;;;;;;;4954380;29;20203;-91
2024/02/20 17:21:13;;;;;;;16.95;3.00;;;;;;;;;;4963067;28;20198;-91
2024/02/20 17:24:19;;;;;;;13.38;3.35;;;;;;;;;;4964987;28;20203;-92
2024/02/20 17:27:27;;;;;;;16.27;2.90;;;;;;;;;;4969422;28;20824;-92
2024/02/20 17:30:33;;;;;;;8.68;3.03;;;;;;;;;;4967109;28;20186;-93
2024/02/20 17:33:39;;;;;;;12.20;3.40;;;;;;;;;;4957582;28;20207;-91
2024/02/20 17:36:46;;;;;;;16.45;3.40;;;;;;;;;;4956709;29;20263;-92
2024/02/20 17:39:52;;;;;;;16.75;2.95;;;;;;;;;;4967292;28;20199;-92
2024/02/20 17:42:56;;;;;;;13.57;2.80;;;;;;;;;;4972314;28;20245;-92
2024/02/20 17:46:03;;;;;;;8.35;2.40;;;;;;;;;;4951162;28;20232;-91
2024/02/20 17:49:09;;;;;;;10.25;2.35;;;;;;;;;;4966774;28;20214;-93
2024/02/20 17:52:16;;;;;;;11.23;2.45;;;;;;;;;;4970117;28;20253;-93
2024/02/20 17:55:23;;;;;;;15.68;3.45;;;;;;;;;;4958870;28;20202;-92
2024/02/20 17:58:30;;;;;;;14.25;4.28;;;;;;;;;;4971850;28;20205;-91
2024/02/20 18:01:38;;;;;;;9.57;2.53;;;;;;;;;;4959678;28;20198;-91
2024/02/20 18:04:45;;;;;;;11.23;2.63;;;;;;;;;;4977650;28;20199;-91
2024/02/20 18:07:52;;;;;;;9.10;2.38;;;;;;;;;;4978196;28;20183;-92
2024/02/20 18:10:58;;;;;;;14.07;4.13;;;;;;;;;;4970499;28;20197;-91
2024/02/20 18:14:04;;;;;;;14.50;3.78;;;;;;;;;;4971444;28;20282;-91
2024/02/20 18:17:10;;;;;;;12.05;2.75;;;;;;;;;;4970839;28;20186;-91
2024/02/20 18:20:15;;;;;;;8.52;2.85;;;;;;;;;;4985045;28;20194;-91
2024/02/20 18:23:22;;;;;;;10.45;2.80;;;;;;;;;;4961781;28;20214;-91
2024/02/20 18:26:27;;;;;;;10.77;2.53;;;;;;;;;;4965724;28;20209;-91
2024/02/20 18:29:33;;;;;;;11.00;2.85;;;;;;;;;;4960589;28;20190;-93
2024/02/20 18:32:43;;;;;;;12.10;3.15;;;;;;;;;;4966329;28;20209;-92
2024/02/20 18:35:48;;;;;;;9.55;3.20;;;;;;;;;;4967974;28;20279;-93
2024/02/20 18:38:55;;;;;;;8.68;3.03;;;;;;;;;;4963539;28;20194;-90
2024/02/20 18:42:01;;;;;;;15.30;3.03;;;;;;;;;;4955345;28;20213;-92
2024/02/20 18:45:09;;;;;;;14.23;3.67;;;;;;;;;;4967122;28;20198;-92
2024/02/20 18:48:14;;;;;;;14.30;3.50;;;;;;;;;;4967209;28;20272;-92
2024/02/20 18:51:20;;;;;;;12.48;2.92;;;;;;;;;;4952296;29;20181;-91
2024/02/20 18:54:31;;;;;;;17.67;3.55;;;;;;;;;;4953190;29;20198;-90
2024/02/20 18:57:36;;;;;;;13.88;3.90;;;;;;;;;;4954921;28;20237;-92